createdAt,value
2023-03-06T00:01:28.734Z,5.80
2023-03-06T00:04:00.761Z,5.80
2023-03-06T00:06:35.447Z,5.70
2023-03-06T00:09:07.785Z,5.70
2023-03-06T00:11:39.841Z,5.70
2023-03-06T00:14:11.942Z,5.70
2023-03-06T00:16:43.998Z,5.70
2023-03-06T00:19:16.105Z,5.70
2023-03-06T00:21:50.925Z,5.60
2023-03-06T00:24:23.005Z,5.60
2023-03-06T00:26:55.044Z,5.60
2023-03-06T00:29:27.062Z,5.60
2023-03-06T00:31:59.133Z,5.60
2023-03-06T00:34:31.141Z,5.60
2023-03-06T00:37:05.541Z,5.50
2023-03-06T00:39:37.849Z,5.50
2023-03-06T00:42:10.377Z,5.50
2023-03-06T00:44:42.648Z,5.50
2023-03-06T00:47:17.370Z,5.50
2023-03-06T00:49:50.476Z,5.40
2023-03-06T00:52:25.248Z,5.40
2023-03-06T00:54:57.226Z,5.40
2023-03-06T00:57:29.061Z,5.40
2023-03-06T01:00:01.072Z,5.40
2023-03-06T01:02:33.215Z,5.40
2023-03-06T01:05:06.512Z,5.30
2023-03-06T01:07:41.200Z,5.30
2023-03-06T01:10:13.319Z,5.30
2023-03-06T01:12:45.941Z,5.30
2023-03-06T01:15:17.908Z,5.30
2023-03-06T01:17:52.301Z,5.30
2023-03-06T01:20:27.859Z,5.30
2023-03-06T01:23:02.448Z,5.20
2023-03-06T01:25:34.596Z,5.20
2023-03-06T01:28:06.608Z,5.10
2023-03-06T01:30:38.591Z,5.10
2023-03-06T01:33:10.626Z,5.10
2023-03-06T01:35:42.972Z,5.10
2023-03-06T01:38:17.709Z,5.10
2023-03-06T01:40:49.995Z,5.10
2023-03-06T01:43:30.545Z,5.10
2023-03-06T01:46:31.279Z,5.10
2023-03-06T01:49:10.978Z,5.10
2023-03-06T01:51:48.826Z,5.10
2023-03-06T01:54:26.766Z,5.10
2023-03-06T01:57:03.156Z,5.10
2023-03-06T01:59:38.472Z,5.10
2023-03-06T02:02:12.730Z,5.10
2023-03-06T02:04:46.359Z,5.10
2023-03-06T02:07:20.890Z,5.10
2023-03-06T02:09:55.525Z,5.10
2023-03-06T02:12:28.079Z,5.10
2023-03-06T02:15:00.768Z,5.10
2023-03-06T02:17:34.882Z,5.10
2023-03-06T02:20:13.749Z,5.10
2023-03-06T02:22:50.009Z,5.10
2023-03-06T02:25:33.890Z,5.10
2023-03-06T02:28:08.102Z,5.10
2023-03-06T02:30:41.718Z,5.10
2023-03-06T02:33:15.620Z,5.10
2023-03-06T02:35:51.269Z,5.00
2023-03-06T02:38:28.172Z,5.00
2023-03-06T02:41:05.242Z,5.00
2023-03-06T02:43:39.255Z,5.00
2023-03-06T02:46:11.431Z,5.00
2023-03-06T02:48:43.463Z,5.00
2023-03-06T02:51:15.539Z,5.00
2023-03-06T02:53:47.651Z,5.00
2023-03-06T02:56:22.828Z,5.10
2023-03-06T02:58:54.806Z,5.00
2023-03-06T03:01:26.655Z,5.00
2023-03-06T03:03:58.673Z,5.00
2023-03-06T03:06:30.713Z,5.00
2023-03-06T03:09:02.783Z,5.00
2023-03-06T03:11:37.752Z,5.00
2023-03-06T03:14:09.935Z,5.00
2023-03-06T03:16:42.014Z,5.00
2023-03-06T03:19:14.364Z,5.00
2023-03-06T03:21:46.500Z,5.00
2023-03-06T03:24:18.554Z,5.00
2023-03-06T03:26:53.370Z,5.00
2023-03-06T03:29:25.415Z,5.00
2023-03-06T03:31:57.462Z,5.00
2023-03-06T03:34:29.450Z,5.00
2023-03-06T03:37:01.344Z,5.00
2023-03-06T03:39:33.663Z,5.00
2023-03-06T03:42:08.592Z,4.90
2023-03-06T03:44:40.680Z,4.90
2023-03-06T03:47:12.711Z,4.90
2023-03-06T03:49:44.743Z,4.90
2023-03-06T03:52:16.714Z,4.90
2023-03-06T03:54:48.534Z,4.90
2023-03-06T03:57:23.098Z,4.90
2023-03-06T03:59:55.480Z,4.90
2023-03-06T04:02:27.614Z,4.90
2023-03-06T04:04:59.791Z,4.90
2023-03-06T04:07:31.787Z,4.90
2023-03-06T04:10:04.160Z,4.80
2023-03-06T04:12:39.289Z,4.80
2023-03-06T04:15:11.693Z,4.80
2023-03-06T04:17:43.711Z,4.80
2023-03-06T04:20:15.804Z,4.80
2023-03-06T04:22:47.866Z,4.80
2023-03-06T04:25:20.100Z,4.80
2023-03-06T04:27:54.850Z,4.80
2023-03-06T04:30:27.171Z,4.80
2023-03-06T04:32:59.705Z,4.80
2023-03-06T04:35:32.284Z,4.80
2023-03-06T04:38:04.810Z,4.80
2023-03-06T04:40:37.178Z,4.80
2023-03-06T04:43:12.264Z,4.80
2023-03-06T04:45:44.319Z,4.80
2023-03-06T04:48:18.711Z,4.80
2023-03-06T04:50:50.819Z,4.80
2023-03-06T04:53:22.672Z,4.80
2023-03-06T04:55:54.630Z,4.70
2023-03-06T04:58:28.995Z,4.70
2023-03-06T05:01:01.147Z,4.70
2023-03-06T05:03:33.220Z,4.70
2023-03-06T05:06:05.600Z,4.70
2023-03-06T05:08:37.604Z,4.70
2023-03-06T05:11:09.614Z,4.70
2023-03-06T05:13:44.562Z,4.70
2023-03-06T05:16:16.498Z,4.70
2023-03-06T05:18:50.503Z,4.70
2023-03-06T05:21:22.548Z,4.60
2023-03-06T05:23:54.429Z,4.60
2023-03-06T05:26:26.225Z,4.60
2023-03-06T05:29:00.664Z,4.60
2023-03-06T05:31:32.553Z,4.60
2023-03-06T05:34:04.388Z,4.60
2023-03-06T05:36:36.329Z,4.60
2023-03-06T05:39:08.253Z,4.60
2023-03-06T05:41:40.074Z,4.60
2023-03-06T05:44:14.463Z,4.50
2023-03-06T05:46:48.594Z,4.50
2023-03-06T05:49:20.439Z,4.50
2023-03-06T05:51:52.234Z,4.50
2023-03-06T05:54:24.649Z,4.50
2023-03-06T05:56:58.758Z,4.60
2023-03-06T05:59:33.373Z,4.60
2023-03-06T06:02:05.678Z,4.60
2023-03-06T06:04:37.621Z,4.60
2023-03-06T06:07:12.861Z,4.60
2023-03-06T06:09:53.817Z,4.60
2023-03-06T06:12:28.918Z,4.60
2023-03-06T06:15:03.593Z,4.60
2023-03-06T06:17:42.420Z,4.60
2023-03-06T06:20:17.360Z,4.60
2023-03-06T06:22:49.349Z,4.60
2023-03-06T06:25:21.183Z,4.70
2023-03-06T06:27:54.367Z,4.60
2023-03-06T06:30:28.907Z,4.60
2023-03-06T06:33:00.789Z,4.60
2023-03-06T06:35:35.297Z,4.60
2023-03-06T06:38:07.137Z,4.60
2023-03-06T06:40:38.941Z,4.60
2023-03-06T06:43:10.718Z,4.60
2023-03-06T06:45:45.262Z,4.70
2023-03-06T06:48:18.068Z,4.60
2023-03-06T06:50:54.768Z,4.70
2023-03-06T06:53:27.456Z,4.70
2023-03-06T06:56:00.186Z,4.70
2023-03-06T06:58:32.047Z,4.70
2023-03-06T07:01:10.421Z,4.70
2023-03-06T07:03:42.232Z,4.70
2023-03-06T07:06:14.148Z,4.70
2023-03-06T07:08:45.983Z,4.70
2023-03-06T07:11:18.464Z,4.70
2023-03-06T07:13:50.523Z,4.70
2023-03-06T07:16:24.942Z,4.70
2023-03-06T07:18:56.927Z,4.70
2023-03-06T07:21:28.826Z,4.70
2023-03-06T07:24:00.989Z,4.70
2023-03-06T07:26:34.786Z,4.70
2023-03-06T07:29:06.885Z,4.60
2023-03-06T07:31:41.415Z,4.60
2023-03-06T07:34:13.889Z,4.60
2023-03-06T07:36:45.696Z,4.60
2023-03-06T07:39:17.529Z,4.60
2023-03-06T07:41:49.415Z,4.60
2023-03-06T07:44:21.235Z,4.60
2023-03-06T07:46:55.833Z,4.60
2023-03-06T07:49:32.434Z,4.60
2023-03-06T07:52:04.624Z,4.60
2023-03-06T07:54:36.381Z,4.50
2023-03-06T07:57:08.186Z,4.50
2023-03-06T07:59:40.054Z,4.50
2023-03-06T08:02:14.497Z,4.50
2023-03-06T08:04:57.072Z,4.60
2023-03-06T08:07:29.663Z,4.50
2023-03-06T08:10:01.534Z,4.50
2023-03-06T08:12:33.355Z,4.60
2023-03-06T08:15:05.904Z,4.60
2023-03-06T08:17:40.602Z,4.60
2023-03-06T08:20:14.397Z,4.60
2023-03-06T08:22:46.389Z,4.60
2023-03-06T08:25:18.377Z,4.60
2023-03-06T08:27:50.455Z,4.60
2023-03-06T08:30:22.756Z,4.60
2023-03-06T08:32:57.201Z,4.70
2023-03-06T08:35:30.862Z,4.70
2023-03-06T08:38:03.153Z,4.70
2023-03-06T08:40:35.075Z,4.70
2023-03-06T08:43:08.771Z,4.80
2023-03-06T08:45:40.731Z,4.80
2023-03-06T08:48:15.241Z,4.80
2023-03-06T08:50:47.170Z,4.80
2023-03-06T08:53:19.310Z,4.80
2023-03-06T08:55:51.273Z,4.90
2023-03-06T08:58:23.119Z,4.90
2023-03-06T09:00:55.506Z,4.80
2023-03-06T09:03:29.962Z,4.80
2023-03-06T09:06:01.740Z,4.80
2023-03-06T09:08:33.523Z,4.90
2023-03-06T09:11:05.540Z,4.90
2023-03-06T09:13:37.594Z,4.90
2023-03-06T09:16:09.812Z,4.90
2023-03-06T09:18:44.299Z,4.90
2023-03-06T09:21:16.517Z,5.00
2023-03-06T09:23:51.602Z,5.00
2023-03-06T09:26:32.798Z,5.00
2023-03-06T09:29:12.658Z,5.00
2023-03-06T09:31:44.636Z,5.00
2023-03-06T09:34:19.457Z,5.00
2023-03-06T09:36:56.624Z,5.00
2023-03-06T09:39:29.189Z,5.10
2023-03-06T09:42:01.072Z,5.10
2023-03-06T09:44:33.971Z,5.10
2023-03-06T09:47:22.977Z,5.20
2023-03-06T09:50:10.433Z,5.20
2023-03-06T09:52:51.456Z,5.20
2023-03-06T09:55:24.645Z,5.20
2023-03-06T09:57:59.746Z,5.30
2023-03-06T10:00:34.757Z,5.30
2023-03-06T10:03:15.952Z,5.30
2023-03-06T10:05:50.147Z,5.40
2023-03-06T10:08:30.377Z,5.40
2023-03-06T10:11:03.741Z,5.50
2023-03-06T10:13:38.008Z,5.60
2023-03-06T10:16:19.125Z,5.60
2023-03-06T10:18:51.353Z,5.70
2023-03-06T10:21:29.774Z,5.70
2023-03-06T10:24:07.700Z,5.70
2023-03-06T10:26:43.177Z,5.70
2023-03-06T10:29:22.842Z,5.80
2023-03-06T10:32:01.037Z,5.80
2023-03-06T10:34:34.658Z,5.80
2023-03-06T10:37:12.925Z,5.80
2023-03-06T10:39:48.387Z,5.80
2023-03-06T10:42:20.261Z,5.80
2023-03-06T10:45:06.005Z,5.80
2023-03-06T10:47:38.554Z,5.80
2023-03-06T10:50:23.341Z,5.80
2023-03-06T10:52:59.595Z,5.80
2023-03-06T10:55:34.763Z,5.80
2023-03-06T10:58:19.839Z,5.80
2023-03-06T11:01:00.852Z,5.90
2023-03-06T11:03:33.082Z,5.80
2023-03-06T11:06:06.577Z,5.80
2023-03-06T11:08:38.656Z,5.80
2023-03-06T11:11:16.938Z,5.90
2023-03-06T11:13:56.211Z,5.90
2023-03-06T11:16:30.670Z,6.00
2023-03-06T11:19:04.087Z,6.00
2023-03-06T11:21:36.727Z,6.10
2023-03-06T11:24:11.922Z,6.20
2023-03-06T11:26:51.109Z,6.20
2023-03-06T11:29:26.893Z,6.30
2023-03-06T11:32:00.598Z,6.30
2023-03-06T11:34:41.545Z,6.30
2023-03-06T11:37:23.718Z,6.30
2023-03-06T11:40:02.986Z,6.30
2023-03-06T11:42:41.206Z,6.40
2023-03-06T11:45:28.740Z,6.40
2023-03-06T11:48:20.978Z,6.40
2023-03-06T11:50:55.474Z,6.50
2023-03-06T11:53:33.049Z,6.50
2023-03-06T11:56:19.758Z,6.50
2023-03-06T11:59:05.561Z,6.60
2023-03-06T12:01:41.246Z,6.60
2023-03-06T12:04:37.989Z,6.70
2023-03-06T12:07:28.993Z,6.70
2023-03-06T12:10:11.551Z,6.70
2023-03-06T12:13:13.237Z,6.70
2023-03-06T12:16:20.033Z,6.80
2023-03-06T12:19:00.476Z,6.80
2023-03-06T12:21:41.210Z,6.80
2023-03-06T12:24:33.279Z,6.70
2023-03-06T12:27:19.957Z,6.70
2023-03-06T12:30:36.277Z,6.70
2023-03-06T12:33:20.731Z,6.70
2023-03-06T12:36:03.139Z,6.60
2023-03-06T12:38:59.246Z,6.60
2023-03-06T12:41:44.111Z,6.60
2023-03-06T12:44:48.093Z,6.70
2023-03-06T12:47:23.736Z,6.60
2023-03-06T12:50:01.534Z,6.60
2023-03-06T12:52:34.949Z,6.50
2023-03-06T12:55:14.333Z,6.50
2023-03-06T12:57:48.819Z,6.50
2023-03-06T13:01:03.685Z,6.50
2023-03-06T13:03:53.304Z,6.50
2023-03-06T13:06:51.610Z,6.40
2023-03-06T13:09:31.610Z,6.40
2023-03-06T13:12:17.953Z,6.40
2023-03-06T13:15:22.811Z,6.40
2023-03-06T13:17:55.236Z,6.40
2023-03-06T13:20:35.514Z,6.40
2023-03-06T13:23:39.149Z,6.50
2023-03-06T13:26:51.584Z,6.50
2023-03-06T13:29:48.172Z,6.50
2023-03-06T13:32:29.928Z,6.50
2023-03-06T13:35:02.590Z,6.50
2023-03-06T13:37:51.174Z,6.50
2023-03-06T13:40:29.881Z,6.50
2023-03-06T13:43:25.117Z,6.40
2023-03-06T13:46:19.150Z,6.50
2023-03-06T13:49:06.098Z,6.50
2023-03-06T13:51:39.718Z,6.50
2023-03-06T13:54:30.894Z,6.50
2023-03-06T13:57:35.073Z,6.50
2023-03-06T14:00:45.689Z,6.50
2023-03-06T14:03:51.692Z,6.50
2023-03-06T14:06:49.200Z,6.50
2023-03-06T14:09:28.108Z,6.40
2023-03-06T14:12:06.185Z,6.40
2023-03-06T14:14:39.647Z,6.40
2023-03-06T14:17:23.179Z,6.40
2023-03-06T14:20:02.736Z,6.40
2023-03-06T14:22:37.056Z,6.40
2023-03-06T14:25:17.339Z,6.40
2023-03-06T14:27:51.512Z,6.40
2023-03-06T14:30:26.283Z,6.40
2023-03-06T14:32:58.440Z,6.40
2023-03-06T14:35:34.522Z,6.40
2023-03-06T14:38:08.142Z,6.40
2023-03-06T14:40:43.599Z,6.40
2023-03-06T14:43:23.962Z,6.50
2023-03-06T14:45:58.467Z,6.50
2023-03-06T14:48:40.363Z,6.50
2023-03-06T14:51:19.259Z,6.50
2023-03-06T14:53:53.538Z,6.50
2023-03-06T14:56:27.385Z,6.50
2023-03-06T14:59:01.533Z,6.50
2023-03-06T15:01:38.198Z,6.50
2023-03-06T15:04:22.921Z,6.40
2023-03-06T15:06:58.754Z,6.40
2023-03-06T15:09:32.978Z,6.40
2023-03-06T15:12:08.523Z,6.40
2023-03-06T15:14:42.992Z,6.40
2023-03-06T15:17:27.948Z,6.40
2023-03-06T15:20:01.188Z,6.40
2023-03-06T15:22:37.971Z,6.40
2023-03-06T15:25:23.578Z,6.40
2023-03-06T15:27:58.096Z,6.40
2023-03-06T15:30:35.391Z,6.40
2023-03-06T15:33:23.843Z,6.50
2023-03-06T15:35:57.303Z,6.50
2023-03-06T15:38:36.818Z,6.50
2023-03-06T15:41:22.361Z,6.50
2023-03-06T15:43:54.736Z,6.50
2023-03-06T15:46:27.078Z,6.50
2023-03-06T15:49:04.377Z,6.40
2023-03-06T15:51:36.504Z,6.40
2023-03-06T15:54:12.798Z,6.40
2023-03-06T15:56:51.717Z,6.40
2023-03-06T15:59:26.168Z,6.40
2023-03-06T16:02:00.019Z,6.40
2023-03-06T16:04:32.119Z,6.40
2023-03-06T16:07:04.599Z,6.40
2023-03-06T16:09:40.467Z,6.30
2023-03-06T16:12:16.137Z,6.30
2023-03-06T16:14:49.237Z,6.30
2023-03-06T16:17:21.581Z,6.30
2023-03-06T16:19:53.626Z,6.20
2023-03-06T16:22:25.662Z,6.30
2023-03-06T16:25:00.307Z,6.20
2023-03-06T16:27:32.453Z,6.30
2023-03-06T16:30:05.714Z,6.20
2023-03-06T16:32:37.888Z,6.30
2023-03-06T16:35:10.859Z,6.30
2023-03-06T16:37:43.177Z,6.30
2023-03-06T16:40:22.328Z,6.20
2023-03-06T16:42:55.262Z,6.20
2023-03-06T16:45:27.501Z,6.20
2023-03-06T16:48:00.384Z,6.20
2023-03-06T16:50:36.239Z,6.20
2023-03-06T16:53:08.576Z,6.20
2023-03-06T16:55:43.332Z,6.20
2023-03-06T16:58:15.658Z,6.20
2023-03-06T17:00:47.741Z,6.20
2023-03-06T17:03:19.813Z,6.20
2023-03-06T17:05:51.935Z,6.20
2023-03-06T17:08:24.162Z,6.20
2023-03-06T17:10:58.932Z,6.20
2023-03-06T17:13:30.969Z,6.20
2023-03-06T17:16:03.315Z,6.10
2023-03-06T17:18:35.737Z,6.10
2023-03-06T17:21:08.426Z,6.10
2023-03-06T17:23:40.451Z,6.10
2023-03-06T17:26:20.406Z,6.10
2023-03-06T17:28:52.529Z,6.10
2023-03-06T17:31:27.743Z,6.10
2023-03-06T17:34:00.596Z,6.10
2023-03-06T17:36:32.939Z,6.10
2023-03-06T17:39:05.318Z,6.10
2023-03-06T17:41:39.936Z,6.10
2023-03-06T17:44:12.183Z,6.00
2023-03-06T17:46:44.410Z,6.00
2023-03-06T17:49:19.397Z,6.00
2023-03-06T17:51:51.599Z,6.00
2023-03-06T17:54:26.255Z,6.00
2023-03-06T17:57:03.513Z,6.00
2023-03-06T17:59:35.860Z,5.90
2023-03-06T18:02:09.868Z,5.90
2023-03-06T18:04:42.470Z,5.90
2023-03-06T18:07:15.671Z,5.80
2023-03-06T18:09:47.893Z,5.80
2023-03-06T18:12:22.491Z,5.80
2023-03-06T18:14:54.671Z,5.80
2023-03-06T18:17:26.814Z,5.80
2023-03-06T18:19:59.065Z,5.80
2023-03-06T18:22:31.102Z,5.70
2023-03-06T18:25:03.323Z,5.70
2023-03-06T18:27:38.021Z,5.70
2023-03-06T18:30:11.494Z,5.70
2023-03-06T18:32:43.550Z,5.70
2023-03-06T18:35:16.114Z,5.70
2023-03-06T18:37:48.531Z,5.70
2023-03-06T18:40:22.013Z,5.70
2023-03-06T18:42:58.592Z,5.70
2023-03-06T18:45:30.871Z,5.70
2023-03-06T18:48:05.010Z,5.70
2023-03-06T18:50:37.069Z,5.70
2023-03-06T18:53:09.051Z,5.70
2023-03-06T18:55:47.303Z,5.70
2023-03-06T18:58:22.091Z,5.60
2023-03-06T19:00:57.154Z,5.60
2023-03-06T19:03:30.960Z,5.60
2023-03-06T19:06:06.066Z,5.60
2023-03-06T19:08:39.738Z,5.60
2023-03-06T19:11:14.215Z,5.60
2023-03-06T19:13:48.834Z,5.60
2023-03-06T19:16:23.086Z,5.60
2023-03-06T19:18:56.262Z,5.60
2023-03-06T19:21:28.788Z,5.60
2023-03-06T19:24:02.347Z,5.50
2023-03-06T19:26:34.323Z,5.50
2023-03-06T19:29:09.307Z,5.50
2023-03-06T19:31:42.058Z,5.50
2023-03-06T19:34:14.071Z,5.50
2023-03-06T19:36:46.043Z,5.50
2023-03-06T19:39:18.011Z,5.50
2023-03-06T19:41:50.139Z,5.50
2023-03-06T19:44:24.744Z,5.50
2023-03-06T19:46:56.832Z,5.50
2023-03-06T19:49:28.917Z,5.50
2023-03-06T19:52:01.083Z,5.60
2023-03-06T19:54:33.094Z,5.80
2023-03-06T19:57:05.171Z,6.10
2023-03-06T19:59:39.825Z,6.40
2023-03-06T20:02:12.114Z,6.70
2023-03-06T20:04:44.168Z,6.90
2023-03-06T20:07:16.210Z,7.20
2023-03-06T20:09:48.307Z,7.40
2023-03-06T20:12:20.288Z,7.50
2023-03-06T20:14:54.662Z,7.70
2023-03-06T20:17:26.632Z,7.90
2023-03-06T20:19:58.641Z,8.10
2023-03-06T20:22:30.418Z,8.20
2023-03-06T20:25:02.748Z,8.30
2023-03-06T20:27:34.668Z,8.40
2023-03-06T20:30:09.959Z,8.50
2023-03-06T20:32:41.739Z,8.50
2023-03-06T20:35:13.576Z,8.60
2023-03-06T20:37:45.805Z,8.70
2023-03-06T20:40:17.884Z,8.70
2023-03-06T20:42:49.809Z,8.80
2023-03-06T20:45:24.199Z,8.80
2023-03-06T20:47:57.191Z,8.80
2023-03-06T20:50:29.087Z,8.80
2023-03-06T20:53:00.853Z,8.80
2023-03-06T20:55:35.586Z,8.90
2023-03-06T20:58:07.365Z,8.90
2023-03-06T21:00:41.858Z,8.90
2023-03-06T21:03:13.801Z,8.90
2023-03-06T21:05:45.736Z,8.90
2023-03-06T21:08:17.503Z,8.90
2023-03-06T21:10:49.685Z,8.80
2023-03-06T21:13:28.272Z,8.80
2023-03-06T21:16:10.625Z,8.80
2023-03-06T21:18:42.701Z,8.80
2023-03-06T21:21:16.413Z,8.70
2023-03-06T21:23:48.636Z,8.70
2023-03-06T21:26:21.619Z,8.70
2023-03-06T21:28:53.438Z,8.70
2023-03-06T21:31:28.497Z,8.70
2023-03-06T21:34:00.940Z,8.70
2023-03-06T21:36:34.054Z,8.50
2023-03-06T21:39:06.323Z,8.20
2023-03-06T21:41:38.411Z,7.90
2023-03-06T21:44:10.663Z,7.60
2023-03-06T21:46:45.151Z,7.40
2023-03-06T21:49:17.165Z,7.10
2023-03-06T21:51:48.948Z,6.90
2023-03-06T21:54:20.819Z,6.80
2023-03-06T21:56:53.140Z,6.60
2023-03-06T21:59:24.916Z,6.40
2023-03-06T22:01:59.251Z,6.30
2023-03-06T22:04:31.066Z,6.20
2023-03-06T22:07:02.845Z,6.10
2023-03-06T22:09:36.958Z,6.00
2023-03-06T22:12:09.383Z,5.90
2023-03-06T22:14:43.463Z,5.80
2023-03-06T22:17:18.230Z,5.70
2023-03-06T22:19:50.200Z,5.70
2023-03-06T22:22:22.209Z,5.60
2023-03-06T22:24:54.392Z,5.60
2023-03-06T22:27:28.455Z,5.60
2023-03-06T22:30:00.645Z,5.50
2023-03-06T22:32:35.339Z,5.50
2023-03-06T22:35:08.060Z,5.40
2023-03-06T22:37:40.034Z,5.40
2023-03-06T22:40:12.901Z,5.40
2023-03-06T22:42:45.009Z,5.40
2023-03-06T22:45:17.265Z,5.30
2023-03-06T22:47:55.187Z,5.30
2023-03-06T22:50:29.171Z,5.30
2023-03-06T22:53:01.270Z,5.30
2023-03-06T22:55:34.915Z,5.30
2023-03-06T22:58:06.946Z,5.30
2023-03-06T23:00:39.589Z,5.30
2023-03-06T23:03:14.115Z,5.30
2023-03-06T23:05:46.109Z,5.30
2023-03-06T23:08:18.085Z,5.30
2023-03-06T23:10:50.085Z,5.30
2023-03-06T23:13:22.144Z,5.30
2023-03-06T23:15:54.184Z,5.30
2023-03-06T23:18:30.817Z,5.30
2023-03-06T23:21:06.534Z,5.30
2023-03-06T23:23:39.095Z,5.30
2023-03-06T23:26:13.989Z,5.30
2023-03-06T23:28:46.245Z,5.30
2023-03-06T23:31:20.986Z,5.30
2023-03-06T23:33:57.797Z,5.30
2023-03-06T23:36:30.544Z,5.30
2023-03-06T23:39:02.558Z,5.30
2023-03-06T23:41:34.534Z,5.30
2023-03-06T23:44:06.549Z,5.30
2023-03-06T23:46:38.554Z,5.30
2023-03-06T23:49:13.381Z,5.40
2023-03-06T23:51:45.405Z,5.30
2023-03-06T23:54:18.774Z,5.30
2023-03-06T23:56:50.786Z,5.30
2023-03-06T23:59:22.778Z,5.40
